Strona główna
METAR-TAF:

METAR-TAF

Lotnisko :

Port lotniczy Burgos

Burgos, Hiszpania

Szerokość geograficzna: 42-22N, Długość geograficzna: 003-38W, wysokość: 894 m

Aktualna obserwacja pogody

Raport powstał 28 minut temu, godzina 07:00 UTC
Wiatr 4 kt od południowo-południowy zachód
Temperatura -1°C
Wilgotność 100%
Ciśnienie 1021 hPa
Widzialność 10 km lub więcej
Mało chmury na wysokości 1000 ft

METAR: LEBG 260700Z 21004KT 9999 FEW010 M01/M01 Q1021

czas: 08:28 (07:28 UTC)

Prognoza

Raport powstał 2 godziny i 28 minut temu, godzina 05:00 UTC
Prognoza ważna od 26 godzina 06 UTC do 26 godzina 15 UTC
Wiatr 7 kt od zachodnio-południowy zachód
Widzialność 10 km lub więcej
Przerywane chmury na wysokości 2000 ft
Przerywane chmury na wysokości 2500 ft

TAF: LEBG 260500Z 2606/2615 24007KT 9999 BKN020 BKN025

Obserwacja i prognoza pogody dla ponad 4000 lotnisk (raport METAR i TAF).

Dostępne stacje oznaczono żółtymi i czerwonymi punktami na mapie.

Najedź kursorem aby zobaczyć nazwę stacji.

Kliknij aby zobaczyć obserwacje i prognozy pogody.

Aby zmienić mapę: kliknij na zielony przycisk z czarnym krzyżykiem, aby powiększyć; na zielony przycisk z myślnikiem, aby pomniejszyć; na zielone strzałki, aby przejść do map sąsiednich.


METAR-TAF: